sensor_id;sensor_type;location;lat;lon;timestamp;pressure;altitude;pressure_sealevel;temperature;humidity
31082;BME280;17737;52.586;13.284;2023-03-02T00:01:48;102171.97;;;0.08;77.61
31082;BME280;17737;52.586;13.284;2023-03-02T00:04:22;102164.72;;;0.11;77.17
31082;BME280;17737;52.586;13.284;2023-03-02T00:06:59;102170.69;;;0.16;77.72
31082;BME280;17737;52.586;13.284;2023-03-02T00:09:31;102169.63;;;0.20;77.74
31082;BME280;17737;52.586;13.284;2023-03-02T00:11:59;102177.13;;;0.31;77.36
31082;BME280;17737;52.586;13.284;2023-03-02T00:14:28;102184.47;;;0.24;77.57
31082;BME280;17737;52.586;13.284;2023-03-02T00:16:57;102172.94;;;0.25;77.49
31082;BME280;17737;52.586;13.284;2023-03-02T00:19:25;102169.63;;;0.20;78.27
31082;BME280;17737;52.586;13.284;2023-03-02T00:21:53;102167.97;;;0.18;78.80
31082;BME280;17737;52.586;13.284;2023-03-02T00:24:21;102172.63;;;0.13;79.29
31082;BME280;17737;52.586;13.284;2023-03-02T00:26:49;102171.75;;;0.12;nan
31082;BME280;17737;52.586;13.284;2023-03-02T00:29:17;102167.59;;;0.07;79.79
31082;BME280;17737;52.586;13.284;2023-03-02T00:31:45;102164.47;;;-0.03;80.05
31082;BME280;17737;52.586;13.284;2023-03-02T00:34:14;102170.91;;;-0.09;80.36
31082;BME280;17737;52.586;13.284;2023-03-02T00:36:43;102168.44;;;-0.13;81.02
31082;BME280;17737;52.586;13.284;2023-03-02T00:39:13;102172.09;;;-0.16;81.16
31082;BME280;17737;52.586;13.284;2023-03-02T00:41:41;102165.28;;;-0.21;81.31
31082;BME280;17737;52.586;13.284;2023-03-02T00:44:09;102171.63;;;-0.25;81.81
31082;BME280;17737;52.586;13.284;2023-03-02T00:46:43;102166.47;;;-0.28;82.05
31082;BME280;17737;52.586;13.284;2023-03-02T00:49:11;102170.06;;;-0.29;82.46
31082;BME280;17737;52.586;13.284;2023-03-02T00:51:41;102170.09;;;-0.31;82.67
31082;BME280;17737;52.586;13.284;2023-03-02T00:54:09;102171.63;;;-0.25;83.05
31082;BME280;17737;52.586;13.284;2023-03-02T00:56:37;102165.34;;;-0.23;82.86
31082;BME280;17737;52.586;13.284;2023-03-02T00:59:06;102160.13;;;-0.24;83.15
31082;BME280;17737;52.586;13.284;2023-03-02T01:01:36;102161.97;;;-0.26;83.38
31082;BME280;17737;52.586;13.284;2023-03-02T01:04:04;102167.19;;;-0.25;83.31
31082;BME280;17737;52.586;13.284;2023-03-02T01:06:32;102166.38;;;-0.27;83.61
31082;BME280;17737;52.586;13.284;2023-03-02T01:09:02;102161.16;;;-0.28;83.70
31082;BME280;17737;52.586;13.284;2023-03-02T01:11:30;102163.69;;;-0.25;83.98
31082;BME280;17737;52.586;13.284;2023-03-02T01:13:58;102159.25;;;-0.25;84.05
31082;BME280;17737;52.586;13.284;2023-03-02T01:16:26;102161.03;;;-0.25;84.19
31082;BME280;17737;52.586;13.284;2023-03-02T01:18:54;102159.31;;;-0.26;84.07
31082;BME280;17737;52.586;13.284;2023-03-02T01:21:22;102155.78;;;-0.27;84.49
31082;BME280;17737;52.586;13.284;2023-03-02T01:23:50;102154.03;;;-0.26;84.32
31082;BME280;17737;52.586;13.284;2023-03-02T01:26:19;102138.28;;;-0.29;84.59
31082;BME280;17737;52.586;13.284;2023-03-02T01:28:47;102140.06;;;-0.30;84.76
31082;BME280;17737;52.586;13.284;2023-03-02T01:31:16;102139.09;;;-0.29;84.90
31082;BME280;17737;52.586;13.284;2023-03-02T01:33:44;102138.13;;;-0.26;85.15
31082;BME280;17737;52.586;13.284;2023-03-02T01:36:12;102137.19;;;-0.25;85.41
31082;BME280;17737;52.586;13.284;2023-03-02T01:38:40;102132.69;;;-0.23;85.16
31082;BME280;17737;52.586;13.284;2023-03-02T01:41:08;102137.00;;;-0.21;85.14
31082;BME280;17737;52.586;13.284;2023-03-02T01:43:39;102135.41;;;-0.25;85.40
31082;BME280;17737;52.586;13.284;2023-03-02T01:46:11;102129.25;;;-0.25;85.34
31082;BME280;17737;52.586;13.284;2023-03-02T01:48:45;102134.53;;;-0.25;85.35
31082;BME280;17737;52.586;13.284;2023-03-02T01:51:17;102127.69;;;-0.29;85.27
31082;BME280;17737;52.586;13.284;2023-03-02T01:53:50;102129.47;;;-0.30;85.47
31082;BME280;17737;52.586;13.284;2023-03-02T01:56:23;102120.78;;;-0.33;85.53
31082;BME280;17737;52.586;13.284;2023-03-02T01:59:00;102117.84;;;-0.27;85.77
31082;BME280;17737;52.586;13.284;2023-03-02T02:01:33;102107.41;;;-0.30;85.69
31082;BME280;17737;52.586;13.284;2023-03-02T02:04:05;102113.13;;;-0.39;85.83
31082;BME280;17737;52.586;13.284;2023-03-02T02:06:34;102112.31;;;-0.41;85.84
31082;BME280;17737;52.586;13.284;2023-03-02T02:09:07;102110.41;;;-0.38;86.17
31082;BME280;17737;52.586;13.284;2023-03-02T02:11:41;102111.38;;;-0.40;85.95
31082;BME280;17737;52.586;13.284;2023-03-02T02:14:11;102112.41;;;-0.44;86.11
31082;BME280;17737;52.586;13.284;2023-03-02T02:16:39;102114.03;;;-0.40;86.31
31082;BME280;17737;52.586;13.284;2023-03-02T02:19:16;102105.22;;;-0.41;86.42
31082;BME280;17737;52.586;13.284;2023-03-02T02:21:57;102107.81;;;-0.39;86.53
31082;BME280;17737;52.586;13.284;2023-03-02T02:24:28;102101.72;;;-0.41;86.50
31082;BME280;17737;52.586;13.284;2023-03-02T02:27:02;102109.59;;;-0.40;86.55
31082;BME280;17737;52.586;13.284;2023-03-02T02:29:30;102112.31;;;-0.41;86.57
31082;BME280;17737;52.586;13.284;2023-03-02T02:32:05;102112.56;;;-0.47;86.65
31082;BME280;17737;52.586;13.284;2023-03-02T02:34:42;102113.44;;;-0.47;86.54
31082;BME280;17737;52.586;13.284;2023-03-02T02:37:19;102110.16;;;-0.73;87.31
31082;BME280;17737;52.586;13.284;2023-03-02T02:39:50;102109.16;;;-0.71;87.40
31082;BME280;17737;52.586;13.284;2023-03-02T02:42:23;102114.38;;;-0.48;87.20
31082;BME280;17737;52.586;13.284;2023-03-02T02:44:58;102109.03;;;-0.68;87.31
31082;BME280;17737;52.586;13.284;2023-03-02T02:47:29;102104.81;;;-0.72;87.51
31082;BME280;17737;52.586;13.284;2023-03-02T02:49:58;102099.09;;;-0.83;87.52
31082;BME280;17737;52.586;13.284;2023-03-02T02:52:27;102107.47;;;-0.93;88.03
31082;BME280;17737;52.586;13.284;2023-03-02T02:54:56;102098.09;;;-1.02;88.49
31082;BME280;17737;52.586;13.284;2023-03-02T02:57:27;102099.25;;;-1.07;88.50
31082;BME280;17737;52.586;13.284;2023-03-02T02:59:58;102097.81;;;-1.16;88.87
31082;BME280;17737;52.586;13.284;2023-03-02T03:02:29;102106.59;;;-1.15;89.17
31082;BME280;17737;52.586;13.284;2023-03-02T03:05:04;102101.03;;;-1.08;89.00
31082;BME280;17737;52.586;13.284;2023-03-02T03:07:32;102102.78;;;-1.08;89.11
31082;BME280;17737;52.586;13.284;2023-03-02T03:10:04;102102.50;;;-1.01;89.14
31082;BME280;17737;52.586;13.284;2023-03-02T03:12:41;102098.47;;;-0.89;88.74
31082;BME280;17737;52.586;13.284;2023-03-02T03:15:10;102109.66;;;-0.83;88.53
31082;BME280;17737;52.586;13.284;2023-03-02T03:17:39;102097.59;;;-0.90;88.64
31082;BME280;17737;52.586;13.284;2023-03-02T03:20:08;102089.06;;;-0.96;88.75
31082;BME280;17737;52.586;13.284;2023-03-02T03:22:37;102103.66;;;-1.08;88.78
31082;BME280;17737;52.586;13.284;2023-03-02T03:25:06;102091.66;;;-1.16;89.14
31082;BME280;17737;52.586;13.284;2023-03-02T03:27:35;102100.56;;;-1.19;89.15
31082;BME280;17737;52.586;13.284;2023-03-02T03:30:05;102099.81;;;-1.23;89.35
31082;BME280;17737;52.586;13.284;2023-03-02T03:32:34;102097.91;;;-1.17;89.40
31082;BME280;17737;52.586;13.284;2023-03-02T03:35:02;102102.19;;;-1.15;89.40
31082;BME280;17737;52.586;13.284;2023-03-02T03:37:34;102099.25;;;-1.07;89.21
31082;BME280;17737;52.586;13.284;2023-03-02T03:40:04;102100.81;;;-1.03;89.16
31082;BME280;17737;52.586;13.284;2023-03-02T03:42:35;102095.78;;;-1.09;89.21
31082;BME280;17737;52.586;13.284;2023-03-02T03:45:07;102095.66;;;-1.06;89.04
31082;BME280;17737;52.586;13.284;2023-03-02T03:47:35;102099.91;;;-1.02;89.09
31082;BME280;17737;52.586;13.284;2023-03-02T03:50:04;102093.47;;;-0.95;88.63
31082;BME280;17737;52.586;13.284;2023-03-02T03:52:32;102089.38;;;-0.82;88.21
31082;BME280;17737;52.586;13.284;2023-03-02T03:55:00;102097.44;;;-0.85;87.76
31082;BME280;17737;52.586;13.284;2023-03-02T03:57:29;102092.81;;;-0.80;87.64
31082;BME280;17737;52.586;13.284;2023-03-02T03:59:57;102090.53;;;-0.89;87.95
31082;BME280;17737;52.586;13.284;2023-03-02T04:02:26;102086.75;;;-1.04;88.26
31082;BME280;17737;52.586;13.284;2023-03-02T04:04:54;102080.91;;;-1.12;88.29
31082;BME280;17737;52.586;13.284;2023-03-02T04:07:22;102083.72;;;-1.16;88.73
31082;BME280;17737;52.586;13.284;2023-03-02T04:09:50;102090.00;;;-1.19;89.14
31082;BME280;17737;52.586;13.284;2023-03-02T04:12:28;102084.47;;;-1.13;88.80
31082;BME280;17737;52.586;13.284;2023-03-02T04:14:57;102082.13;;;-1.21;88.80
31082;BME280;17737;52.586;13.284;2023-03-02T04:17:27;102081.28;;;-0.99;88.30
31082;BME280;17737;52.586;13.284;2023-03-02T04:19:55;102079.03;;;-0.88;87.62
31082;BME280;17737;52.586;13.284;2023-03-02T04:22:24;102078.03;;;-1.06;87.87
31082;BME280;17737;52.586;13.284;2023-03-02T04:24:52;102084.41;;;-1.11;88.78
31082;BME280;17737;52.586;13.284;2023-03-02T04:27:20;102083.66;;;-1.15;88.46
31082;BME280;17737;52.586;13.284;2023-03-02T04:29:48;102087.19;;;-1.14;88.29
31082;BME280;17737;52.586;13.284;2023-03-02T04:32:18;102088.34;;;-1.22;88.49
31082;BME280;17737;52.586;13.284;2023-03-02T04:34:48;102105.13;;;-1.23;88.45
31082;BME280;17737;52.586;13.284;2023-03-02T04:37:16;102103.41;;;-1.24;88.29
31082;BME280;17737;52.586;13.284;2023-03-02T04:39:43;102109.78;;;-1.29;87.98
31082;BME280;17737;52.586;13.284;2023-03-02T04:42:15;102118.09;;;-1.38;88.25
31082;BME280;17737;52.586;13.284;2023-03-02T04:44:43;102115.41;;;-1.37;88.11
31082;BME280;17737;52.586;13.284;2023-03-02T04:47:11;102107.34;;;-1.34;88.16
31082;BME280;17737;52.586;13.284;2023-03-02T04:49:40;102114.81;;;-1.45;88.05
31082;BME280;17737;52.586;13.284;2023-03-02T04:52:09;102113.09;;;-1.46;87.93
31082;BME280;17737;52.586;13.284;2023-03-02T04:54:37;102111.59;;;-1.53;88.25
31082;BME280;17737;52.586;13.284;2023-03-02T04:57:05;102111.59;;;-1.53;88.62
31082;BME280;17737;52.586;13.284;2023-03-02T04:59:33;102105.81;;;-1.62;88.62
31082;BME280;17737;52.586;13.284;2023-03-02T05:02:02;102101.22;;;-1.57;88.51
31082;BME280;17737;52.586;13.284;2023-03-02T05:04:30;102102.81;;;-1.53;88.63
31082;BME280;17737;52.586;13.284;2023-03-02T05:06:58;102100.22;;;-1.55;88.51
31082;BME280;17737;52.586;13.284;2023-03-02T05:09:28;102093.56;;;-1.65;88.82
31082;BME280;17737;52.586;13.284;2023-03-02T05:11:57;102092.06;;;-1.49;88.37
31082;BME280;17737;52.586;13.284;2023-03-02T05:14:28;102092.56;;;-1.61;88.28
31082;BME280;17737;52.586;13.284;2023-03-02T05:16:56;102095.06;;;-1.58;88.34
31082;BME280;17737;52.586;13.284;2023-03-02T05:19:24;102100.88;;;-1.71;88.73
31082;BME280;17737;52.586;13.284;2023-03-02T05:21:52;102093.88;;;-1.72;88.77
31082;BME280;17737;52.586;13.284;2023-03-02T05:24:21;102107.19;;;-1.75;88.88
31082;BME280;17737;52.586;13.284;2023-03-02T05:26:51;102099.78;;;-1.66;88.24
31082;BME280;17737;52.586;13.284;2023-03-02T05:29:19;102099.66;;;-1.63;88.21
31082;BME280;17737;52.586;13.284;2023-03-02T05:31:48;102096.09;;;-1.62;87.99
31082;BME280;17737;52.586;13.284;2023-03-02T05:34:17;102097.28;;;-1.69;88.02
31082;BME280;17737;52.586;13.284;2023-03-02T05:36:45;102099.31;;;-1.77;88.01
31082;BME280;17737;52.586;13.284;2023-03-02T05:39:13;102098.84;;;-1.65;88.25
31082;BME280;17737;52.586;13.284;2023-03-02T05:41:41;102100.19;;;-1.76;88.56
31082;BME280;17737;52.586;13.284;2023-03-02T05:44:10;102095.09;;;-1.81;88.41
31082;BME280;17737;52.586;13.284;2023-03-02T05:46:38;102089.50;;;-1.96;89.21
31082;BME280;17737;52.586;13.284;2023-03-02T05:49:18;102090.53;;;-2.00;89.19
31082;BME280;17737;52.586;13.284;2023-03-02T05:52:10;102086.19;;;-2.01;89.58
31082;BME280;17737;52.586;13.284;2023-03-02T05:54:38;102095.88;;;-2.02;89.51
31082;BME280;17737;52.586;13.284;2023-03-02T05:57:06;102087.09;;;-2.02;89.71
31082;BME280;17737;52.586;13.284;2023-03-02T05:59:35;102104.78;;;-2.04;89.93
31082;BME280;17737;52.586;13.284;2023-03-02T06:02:03;102104.19;;;-2.12;90.06
31082;BME280;17737;52.586;13.284;2023-03-02T06:04:31;102108.72;;;-2.16;90.16
31082;BME280;17737;52.586;13.284;2023-03-02T06:06:59;102117.44;;;-2.14;90.09
31082;BME280;17737;52.586;13.284;2023-03-02T06:09:27;102109.34;;;-2.09;90.20
31082;BME280;17737;52.586;13.284;2023-03-02T06:11:54;102115.78;;;-2.16;90.46
31082;BME280;17737;52.586;13.284;2023-03-02T06:14:22;102122.34;;;-2.03;90.27
31082;BME280;17737;52.586;13.284;2023-03-02T06:16:52;102122.47;;;-2.06;90.12
31082;BME280;17737;52.586;13.284;2023-03-02T06:19:20;102125.03;;;-2.05;90.08
31082;BME280;17737;52.586;13.284;2023-03-02T06:21:48;102135.09;;;-1.91;90.07
31082;BME280;17737;52.586;13.284;2023-03-02T06:24:16;102128.38;;;-2.00;90.14
31082;BME280;17737;52.586;13.284;2023-03-02T06:26:44;102136.72;;;-1.64;89.93
31082;BME280;17737;52.586;13.284;2023-03-02T06:29:12;102136.78;;;-1.66;89.48
31082;BME280;17737;52.586;13.284;2023-03-02T06:31:40;102139.44;;;-1.66;88.89
31082;BME280;17737;52.586;13.284;2023-03-02T06:34:09;102128.84;;;-1.66;88.81
31082;BME280;17737;52.586;13.284;2023-03-02T06:36:37;102131.88;;;-1.53;88.78
31082;BME280;17737;52.586;13.284;2023-03-02T06:39:05;102126.59;;;-1.53;88.23
31082;BME280;17737;52.586;13.284;2023-03-02T06:41:41;102135.44;;;-1.54;88.18
31082;BME280;17737;52.586;13.284;2023-03-02T06:44:09;102131.88;;;-1.53;88.21
31082;BME280;17737;52.586;13.284;2023-03-02T06:46:39;102133.44;;;-1.48;88.05
31082;BME280;17737;52.586;13.284;2023-03-02T06:49:10;102131.88;;;-1.53;87.83
31082;BME280;17737;52.586;13.284;2023-03-02T06:51:39;102133.47;;;-1.71;87.95
31082;BME280;17737;52.586;13.284;2023-03-02T06:54:07;102135.00;;;-1.65;88.59
31082;BME280;17737;52.586;13.284;2023-03-02T06:56:35;102139.13;;;-1.58;88.24
31082;BME280;17737;52.586;13.284;2023-03-02T06:59:06;102131.03;;;-1.54;88.07
31082;BME280;17737;52.586;13.284;2023-03-02T07:01:34;102138.50;;;-1.65;87.80
31082;BME280;17737;52.586;13.284;2023-03-02T07:04:02;102135.56;;;-1.57;88.29
31082;BME280;17737;52.586;13.284;2023-03-02T07:06:31;102136.06;;;-1.48;88.02
31082;BME280;17737;52.586;13.284;2023-03-02T07:08:59;102140.00;;;-1.58;87.90
31082;BME280;17737;52.586;13.284;2023-03-02T07:11:28;102137.81;;;-1.47;87.66
31082;BME280;17737;52.586;13.284;2023-03-02T07:13:58;102137.47;;;-1.61;87.59
31082;BME280;17737;52.586;13.284;2023-03-02T07:16:26;102137.19;;;-1.76;87.98
31082;BME280;17737;52.586;13.284;2023-03-02T07:18:55;102138.81;;;-1.72;88.29
31082;BME280;17737;52.586;13.284;2023-03-02T07:21:24;102145.16;;;-1.55;88.48
31082;BME280;17737;52.586;13.284;2023-03-02T07:23:53;102139.66;;;-1.49;88.07
31082;BME280;17737;52.586;13.284;2023-03-02T07:26:21;102133.56;;;-1.51;87.91
31082;BME280;17737;52.586;13.284;2023-03-02T07:28:49;102128.72;;;-1.40;87.64
31082;BME280;17737;52.586;13.284;2023-03-02T07:31:17;102130.66;;;-1.22;87.11
31082;BME280;17737;52.586;13.284;2023-03-02T07:33:45;102135.38;;;-0.86;86.43
31082;BME280;17737;52.586;13.284;2023-03-02T07:36:13;102134.41;;;-0.84;85.54
31082;BME280;17737;52.586;13.284;2023-03-02T07:38:41;102138.72;;;-1.03;85.55
31082;BME280;17737;52.586;13.284;2023-03-02T07:41:10;102137.72;;;-1.00;85.53
31082;BME280;17737;52.586;13.284;2023-03-02T07:43:39;102141.66;;;-1.10;85.94
31082;BME280;17737;52.586;13.284;2023-03-02T07:46:07;102142.66;;;-1.13;85.91
31082;BME280;17737;52.586;13.284;2023-03-02T07:48:35;102136.28;;;-1.07;86.33
31082;BME280;17737;52.586;13.284;2023-03-02T07:51:05;102134.03;;;-0.96;85.49
31082;BME280;17737;52.586;13.284;2023-03-02T07:53:33;102134.31;;;-1.02;85.89
31082;BME280;17737;52.586;13.284;2023-03-02T07:56:05;102138.59;;;-0.78;85.68
31082;BME280;17737;52.586;13.284;2023-03-02T07:58:36;102139.16;;;-0.50;84.63
31082;BME280;17737;52.586;13.284;2023-03-02T08:01:04;102136.28;;;-0.24;83.73
31082;BME280;17737;52.586;13.284;2023-03-02T08:03:33;102126.81;;;-0.50;83.58
31082;BME280;17737;52.586;13.284;2023-03-02T08:06:04;102130.72;;;-0.38;83.26
31082;BME280;17737;52.586;13.284;2023-03-02T08:08:34;102132.16;;;-0.31;82.41
31082;BME280;17737;52.586;13.284;2023-03-02T08:11:05;102139.59;;;-0.39;82.97
31082;BME280;17737;52.586;13.284;2023-03-02T08:13:36;102130.03;;;-0.43;82.75
31082;BME280;17737;52.586;13.284;2023-03-02T08:16:06;102135.34;;;-0.43;83.34
31082;BME280;17737;52.586;13.284;2023-03-02T08:18:37;102138.50;;;-0.35;83.46
31082;BME280;17737;52.586;13.284;2023-03-02T08:21:10;102133.00;;;-0.31;83.20
31082;BME280;17737;52.586;13.284;2023-03-02T08:23:40;102131.56;;;-0.18;82.52
31082;BME280;17737;52.586;13.284;2023-03-02T08:26:08;102131.28;;;-0.52;83.22
31082;BME280;17737;52.586;13.284;2023-03-02T08:28:41;102130.41;;;-0.52;83.70
31082;BME280;17737;52.586;13.284;2023-03-02T08:31:10;102132.84;;;-0.46;83.73
31082;BME280;17737;52.586;13.284;2023-03-02T08:33:40;102128.88;;;-0.36;83.33
31082;BME280;17737;52.586;13.284;2023-03-02T08:36:11;102126.47;;;-0.22;83.68
31082;BME280;17737;52.586;13.284;2023-03-02T08:38:40;102122.63;;;-0.15;82.84
31082;BME280;17737;52.586;13.284;2023-03-02T08:41:11;102127.16;;;-0.17;82.43
31082;BME280;17737;52.586;13.284;2023-03-02T08:43:42;102119.78;;;-0.31;82.90
31082;BME280;17737;52.586;13.284;2023-03-02T08:46:12;102121.56;;;-0.51;83.66
31082;BME280;17737;52.586;13.284;2023-03-02T08:48:41;102120.91;;;-0.36;83.77
31082;BME280;17737;52.586;13.284;2023-03-02T08:51:12;102125.94;;;-0.30;83.67
31082;BME280;17737;52.586;13.284;2023-03-02T08:53:42;102121.16;;;-0.22;84.12
31082;BME280;17737;52.586;13.284;2023-03-02T08:56:17;102116.16;;;0.11;82.83
31082;BME280;17737;52.586;13.284;2023-03-02T08:58:49;102109.91;;;0.50;81.42
31082;BME280;17737;52.586;13.284;2023-03-02T09:01:19;102115.38;;;0.47;80.82
31082;BME280;17737;52.586;13.284;2023-03-02T09:03:49;102115.72;;;0.58;80.85
31082;BME280;17737;52.586;13.284;2023-03-02T09:06:17;102109.28;;;0.45;80.07
31082;BME280;17737;52.586;13.284;2023-03-02T09:08:46;102105.97;;;0.40;80.93
31082;BME280;17737;52.586;13.284;2023-03-02T09:11:14;102092.72;;;0.22;81.35
31082;BME280;17737;52.586;13.284;2023-03-02T09:13:42;102099.16;;;0.53;80.47
31082;BME280;17737;52.586;13.284;2023-03-02T09:16:13;102094.22;;;0.46;80.72
31082;BME280;17737;52.586;13.284;2023-03-02T09:18:41;102084.38;;;0.29;81.44
31082;BME280;17737;52.586;13.284;2023-03-02T09:21:09;102087.13;;;0.46;81.38
31082;BME280;17737;52.586;13.284;2023-03-02T09:23:38;102090.00;;;0.60;80.95
31082;BME280;17737;52.586;13.284;2023-03-02T09:26:06;102089.13;;;0.60;80.91
31082;BME280;17737;52.586;13.284;2023-03-02T09:28:34;102086.75;;;0.72;80.80
31082;BME280;17737;52.586;13.284;2023-03-02T09:31:05;102090.25;;;0.91;79.66
31082;BME280;17737;52.586;13.284;2023-03-02T09:33:36;102085.84;;;0.90;79.45
31082;BME280;17737;52.586;13.284;2023-03-02T09:36:05;102086.38;;;0.98;79.73
31082;BME280;17737;52.586;13.284;2023-03-02T09:38:34;102087.16;;;1.52;78.05
31082;BME280;17737;52.586;13.284;2023-03-02T09:44:42;102094.38;;;1.33;77.70
31082;BME280;17737;52.586;13.284;2023-03-02T09:47:31;102090.53;;;0.85;78.55
31082;BME280;17737;52.586;13.284;2023-03-02T09:50:20;102094.13;;;0.84;79.96
31082;BME280;17737;52.586;13.284;2023-03-02T09:55:53;102087.81;;;1.23;78.64
31082;BME280;17737;52.586;13.284;2023-03-02T09:58:29;102094.28;;;1.34;78.32
31082;BME280;17737;52.586;13.284;2023-03-02T10:01:05;102106.03;;;0.76;79.56
31082;BME280;17737;52.586;13.284;2023-03-02T10:03:47;102107.25;;;0.87;80.34
31082;BME280;17737;52.586;13.284;2023-03-02T10:06:23;102105.69;;;0.83;80.68
31082;BME280;17737;52.586;13.284;2023-03-02T10:08:52;102105.31;;;1.44;78.99
31082;BME280;17737;52.586;13.284;2023-03-02T10:11:29;102100.75;;;1.11;79.97
31082;BME280;17737;52.586;13.284;2023-03-02T10:14:08;102098.91;;;1.82;77.90
31082;BME280;17737;52.586;13.284;2023-03-02T10:16:46;102102.84;;;2.07;76.30
31082;BME280;17737;52.586;13.284;2023-03-02T10:19:21;102099.97;;;1.78;76.74
31082;BME280;17737;52.586;13.284;2023-03-02T10:21:58;102096.97;;;1.68;77.23
31082;BME280;17737;52.586;13.284;2023-03-02T10:24:37;102099.91;;;1.28;78.80
31082;BME280;17737;52.586;13.284;2023-03-02T10:27:12;102106.06;;;1.97;77.17
31082;BME280;17737;52.586;13.284;2023-03-02T10:29:50;102095.91;;;1.88;76.57
31082;BME280;17737;52.586;13.284;2023-03-02T10:32:28;102092.03;;;1.61;77.56
31082;BME280;17737;52.586;13.284;2023-03-02T10:35:01;102101.16;;;1.38;78.32
31082;BME280;17737;52.586;13.284;2023-03-02T10:37:41;102094.28;;;1.34;79.29
31082;BME280;17737;52.586;13.284;2023-03-02T10:40:10;102097.03;;;1.84;77.74
31082;BME280;17737;52.586;13.284;2023-03-02T10:42:57;102099.72;;;1.99;76.54
31082;BME280;17737;52.586;13.284;2023-03-02T10:45:29;102103.09;;;1.69;77.54
31082;BME280;17737;52.586;13.284;2023-03-02T10:47:59;102094.91;;;1.73;77.78
31082;BME280;17737;52.586;13.284;2023-03-02T10:50:28;102092.72;;;1.64;78.50
31082;BME280;17737;52.586;13.284;2023-03-02T10:52:58;102102.00;;;1.90;78.09
31082;BME280;17737;52.586;13.284;2023-03-02T10:55:32;102088.34;;;2.13;76.42
31082;BME280;17737;52.586;13.284;2023-03-02T10:58:03;102098.97;;;1.80;77.25
31082;BME280;17737;52.586;13.284;2023-03-02T11:00:35;102091.72;;;1.67;78.41
31082;BME280;17737;52.586;13.284;2023-03-02T11:03:16;102100.47;;;2.18;77.57
31082;BME280;17737;52.586;13.284;2023-03-02T11:05:47;102084.06;;;2.59;75.10
31082;BME280;17737;52.586;13.284;2023-03-02T11:08:18;102087.47;;;2.29;75.90
31082;BME280;17737;52.586;13.284;2023-03-02T11:10:52;102087.28;;;2.32;75.95
31082;BME280;17737;52.586;13.284;2023-03-02T11:13:28;102086.53;;;2.46;76.65
31082;BME280;17737;52.586;13.284;2023-03-02T11:15:59;102076.91;;;2.28;76.36
31082;BME280;17737;52.586;13.284;2023-03-02T11:18:33;102072.38;;;2.61;75.85
31082;BME280;17737;52.586;13.284;2023-03-02T11:21:08;102069.13;;;2.87;75.27
31082;BME280;17737;52.586;13.284;2023-03-02T11:23:49;102068.66;;;2.95;74.28
31082;BME280;17737;52.586;13.284;2023-03-02T11:26:25;102061.22;;;2.55;75.24
31082;BME280;17737;52.586;13.284;2023-03-02T11:28:59;102060.53;;;2.82;74.49
31082;BME280;17737;52.586;13.284;2023-03-02T11:31:40;102060.59;;;2.96;73.56
31082;BME280;17737;52.586;13.284;2023-03-02T11:34:23;102053.66;;;2.94;73.26
31082;BME280;17737;52.586;13.284;2023-03-02T11:37:00;102052.72;;;2.79;73.67
31082;BME280;17737;52.586;13.284;2023-03-02T11:39:48;102051.69;;;2.51;75.13
31082;BME280;17737;52.586;13.284;2023-03-02T11:42:29;102054.69;;;2.44;75.28
31082;BME280;17737;52.586;13.284;2023-03-02T11:45:03;102051.53;;;2.38;75.79
31082;BME280;17737;52.586;13.284;2023-03-02T11:47:46;102049.63;;;2.24;76.01
31082;BME280;17737;52.586;13.284;2023-03-02T11:50:28;102046.22;;;2.38;76.26
31082;BME280;17737;52.586;13.284;2023-03-02T11:53:01;102041.13;;;2.18;76.36
31082;BME280;17737;52.586;13.284;2023-03-02T11:55:39;102042.22;;;2.14;77.34
31082;BME280;17737;52.586;13.284;2023-03-02T11:58:16;102042.16;;;2.31;77.03
31082;BME280;17737;52.586;13.284;2023-03-02T12:00:49;102044.38;;;2.38;76.88
31082;BME280;17737;52.586;13.284;2023-03-02T12:03:22;102030.50;;;2.18;77.07
31082;BME280;17737;52.586;13.284;2023-03-02T12:06:04;102032.53;;;2.28;77.31
31082;BME280;17737;52.586;13.284;2023-03-02T12:08:37;102026.38;;;2.12;77.92
31082;BME280;17737;52.586;13.284;2023-03-02T12:11:31;102027.06;;;2.47;77.31
31082;BME280;17737;52.586;13.284;2023-03-02T12:14:04;102025.34;;;2.62;76.46
31082;BME280;17737;52.586;13.284;2023-03-02T12:16:51;102021.75;;;2.31;76.88
31082;BME280;17737;52.586;13.284;2023-03-02T12:19:44;102023.97;;;2.23;77.17
31082;BME280;17737;52.586;13.284;2023-03-02T12:22:25;102015.75;;;2.28;77.76
31082;BME280;17737;52.586;13.284;2023-03-02T12:25:01;102010.69;;;2.55;77.03
31082;BME280;17737;52.586;13.284;2023-03-02T12:27:38;102011.69;;;2.68;76.56
31082;BME280;17737;52.586;13.284;2023-03-02T12:30:20;102002.94;;;2.66;76.54
31082;BME280;17737;52.586;13.284;2023-03-02T12:33:02;101998.66;;;2.47;76.92
31082;BME280;17737;52.586;13.284;2023-03-02T12:35:44;101998.88;;;2.74;76.58
31082;BME280;17737;52.586;13.284;2023-03-02T12:38:24;101990.50;;;2.66;76.75
31082;BME280;17737;52.586;13.284;2023-03-02T12:44:34;101987.41;;;3.03;75.87
31082;BME280;17737;52.586;13.284;2023-03-02T12:47:18;101986.81;;;2.98;75.07
31082;BME280;17737;52.586;13.284;2023-03-02T12:49:55;101985.75;;;3.16;75.16
31082;BME280;17737;52.586;13.284;2023-03-02T12:52:28;101983.00;;;3.18;75.12
31082;BME280;17737;52.586;13.284;2023-03-02T12:54:59;101974.19;;;3.31;74.59
31082;BME280;17737;52.586;13.284;2023-03-02T12:57:29;101979.13;;;3.23;74.24
31082;BME280;17737;52.586;13.284;2023-03-02T13:00:00;101978.47;;;3.04;75.48
31082;BME280;17737;52.586;13.284;2023-03-02T13:02:32;101977.91;;;3.13;75.46
31082;BME280;17737;52.586;13.284;2023-03-02T13:05:04;101969.09;;;3.13;74.83
31082;BME280;17737;52.586;13.284;2023-03-02T13:07:37;101971.13;;;3.23;74.77
31082;BME280;17737;52.586;13.284;2023-03-02T13:10:19;101964.34;;;3.18;74.76
31082;BME280;17737;52.586;13.284;2023-03-02T13:12:52;101966.69;;;3.08;75.16
31082;BME280;17737;52.586;13.284;2023-03-02T13:15:21;101972.97;;;3.07;75.60